This is the latest recevied weather packets stored in our database for station/object N6XE-13. If no packets are shown the sender has not sent any weather packets the latest 10 day(s).
| Time | Temp. | Humidity | Pressure | Rain* | Wind** | Luminosity | Snow |
|---|---|---|---|---|---|---|---|
| 1777887005 | 13.89° C | 81% | 1017 hPa | 0 mm | - | - | - |
| 1777885205 | 13.89° C | 82% | 1017 hPa | 0 mm | - | - | - |
| 1777883405 | 13.89° C | 83% | 1017.2 hPa | 0 mm | - | - | - |
| 1777881605 | 13.89° C | 82% | 1017 hPa | 0 mm | - | - | - |
| 1777879805 | 13.89° C | 79% | 1016.9 hPa | 0 mm | - | - | - |
| 1777878006 | 13.89° C | 79% | 1016.9 hPa | 0 mm | - | - | - |
| 1777876206 | 13.89° C | 79% | 1016.7 hPa | 0 mm | - | - | - |
| 1777874406 | 13.89° C | 79% | 1016.6 hPa | 0 mm | - | - | - |
| 1777849205 | 22.22° C | 54% | 1014 hPa | 0 mm | - | - | - |
| 1777847405 | 22.78° C | 54% | 1014 hPa | 0 mm | - | - | - |
| 1777843806 | 21.67° C | 57% | 1014.6 hPa | 0 mm | - | - | - |
| 1777842006 | 22.22° C | 57% | 1014.5 hPa | 0 mm | - | - | - |
| 1777840206 | 22.22° C | 56% | 1014.5 hPa | 0 mm | - | - | - |
| 1777838406 | 22.22° C | 55% | 1014.7 hPa | 0 mm | - | - | - |
| 1777836606 | 21.67° C | 56% | 1014.8 hPa | 0 mm | - | - | - |
| 1777833005 | 20.56° C | 59% | 1015 hPa | 0 mm | - | - | - |
| 1777831206 | 20° C | 60% | 1015.1 hPa | 0 mm | - | - | - |
| 1777829405 | 18.33° C | 66% | 1015 hPa | 0 mm | - | - | - |
| 1777827605 | 17.22° C | 71% | 1014.9 hPa | 0 mm | - | - | - |
| 1777825805 | 16.11° C | 77% | 1015 hPa | 0 mm | - | - | - |
| 1777824006 | 16.11° C | 80% | 1014.7 hPa | 0 mm | - | - | - |
| 1777822206 | 15° C | 83% | 1014.4 hPa | 0 mm | - | - | - |
| 1777820406 | 13.89° C | 86% | 1014.3 hPa | 0 mm | - | - | - |
| 1777818606 | 13.33° C | 89% | 1014 hPa | 0 mm | - | - | - |
| 1777816806 | 12.78° C | 90% | 1013.5 hPa | 0 mm | - | - | - |
* Rain latest hour (hover to see other rain measurements)
** Current wind speed in m/s (hover to see current wind gust speed)